Archival Weather

Annapolis United States Naval

Annapolis United States Naval, Maryland (KNAK)

Report from: Tuesday, June 6, 2023 11:54 AM UTC
Current time: Wednesday, April 24, 2024 6:01 PM UTC

Current weather – Weather history – Daily summaries
Weather forecast

Temperature16.7°C (62.1°F)
Dew point8.9°C (48.0°F)
Winds 5 kts (2.6 m/s, 5.8 mph) West (280°)
Visibility10 mi. (16.1 km)
Altimeter29.83 in.Hg (1010 mB)
Relative humidity60 %
Density altitude467 ft. (142 m)
Sea-level pressure101.0 kPa (1010 mB, 29.83 in.Hg)
Max temp last 6 hours17.2°C (63.0°F)
Min temp last 6 hours15.0°C (59.0°F)
Remarks Fully automated report
Automated weather observing station with precipitation discriminator
Pressure falling more quickly
Flight conditions Visual Meteorological Conditions
Raw dataKNAK 061154Z AUTO 28005KT 10SM 17/09 A2983 RMK AO2 SLP102 T01670089 10172 20150 58002
An error has occurred. This application may no longer respond until reloaded. Reload 🗙